createdAt,value
2023-02-06T00:07:53.002Z,102282
2023-02-06T00:17:51.833Z,102283
2023-02-06T00:27:51.561Z,102296
2023-02-06T00:37:51.294Z,102311
2023-02-06T00:47:51.124Z,102313
2023-02-06T00:57:50.823Z,102307
2023-02-06T01:07:50.738Z,102307
2023-02-06T01:17:50.364Z,102312
2023-02-06T01:27:50.439Z,102308
2023-02-06T01:37:50.043Z,102318
2023-02-06T01:47:49.622Z,102304
2023-02-06T01:57:49.400Z,102309
2023-02-06T02:07:49.196Z,102283
2023-02-06T02:17:48.937Z,102272
2023-02-06T02:27:48.635Z,102275
2023-02-06T02:37:48.312Z,102276
2023-02-06T02:47:48.007Z,102291
2023-02-06T02:57:47.715Z,102284
2023-02-06T03:07:47.376Z,102299
2023-02-06T03:17:47.005Z,102304
2023-02-06T03:27:46.744Z,102309
2023-02-06T03:37:46.426Z,102312
2023-02-06T03:47:46.060Z,102320
2023-02-06T03:57:45.768Z,102309
2023-02-06T04:07:45.416Z,102309
2023-02-06T04:17:58.833Z,102294
2023-02-06T04:27:44.668Z,102308
2023-02-06T04:37:44.254Z,102318
2023-02-06T04:47:43.911Z,102317
2023-02-06T04:57:43.539Z,102316
2023-02-06T05:07:43.289Z,102318
2023-02-06T05:17:42.951Z,102326
2023-02-06T05:27:42.657Z,102329
2023-02-06T05:37:42.377Z,102336
2023-02-06T05:47:42.058Z,102337
2023-02-06T05:57:41.793Z,102338
2023-02-06T06:07:41.488Z,102343
2023-02-06T06:17:41.104Z,102347
2023-02-06T06:27:40.750Z,102340
2023-02-06T06:37:40.381Z,102334
2023-02-06T06:47:40.024Z,102335
2023-02-06T06:57:39.701Z,102332
2023-02-06T07:07:39.628Z,102333
2023-02-06T07:17:39.269Z,102340
2023-02-06T07:27:38.851Z,102347
2023-02-06T07:37:38.559Z,102356
2023-02-06T07:47:38.356Z,102366
2023-02-06T07:57:38.025Z,102350
2023-02-06T08:07:37.823Z,102348
2023-02-06T08:17:38.912Z,102350
2023-02-06T08:27:37.569Z,102350
2023-02-06T08:37:37.555Z,102336
2023-02-06T08:47:37.631Z,102323
2023-02-06T08:57:37.737Z,102323
2023-02-06T09:07:39.119Z,102329
2023-02-06T09:17:38.254Z,102327
2023-02-06T09:27:38.270Z,102315
2023-02-06T09:37:38.579Z,102327
2023-02-06T09:47:39.115Z,102318
2023-02-06T09:57:39.327Z,102314
2023-02-06T10:17:39.604Z,102295
2023-02-06T10:27:39.739Z,102292
2023-02-06T10:37:40.168Z,102275
2023-02-06T10:47:40.141Z,102273
2023-02-06T10:57:40.093Z,102251
2023-02-06T11:07:41.137Z,102237
2023-02-06T11:17:40.128Z,102234
2023-02-06T11:37:40.618Z,102212
2023-02-06T11:47:40.367Z,102210
2023-02-06T11:57:40.419Z,102193
2023-02-06T12:07:40.505Z,102189
2023-02-06T12:17:40.599Z,102171
2023-02-06T12:27:41.498Z,102169
2023-02-06T12:37:41.030Z,102160
2023-02-06T12:47:41.882Z,102162
2023-02-06T12:57:40.975Z,102156
2023-02-06T13:07:49.104Z,102138
2023-02-06T13:17:40.918Z,102154
2023-02-06T13:27:41.209Z,102153
2023-02-06T13:37:40.937Z,102148
2023-02-06T13:47:42.636Z,102142
2023-02-06T13:57:41.110Z,102147
2023-02-06T14:17:42.154Z,102172
2023-02-06T14:27:42.250Z,102182
2023-02-06T14:47:40.954Z,102186
2023-02-06T14:57:41.243Z,102184
2023-02-06T15:07:41.209Z,102191
2023-02-06T15:17:41.106Z,102206
2023-02-06T15:27:41.437Z,102216
2023-02-06T15:37:41.182Z,102219
2023-02-06T15:57:44.514Z,102234
2023-02-06T16:07:41.423Z,102248
2023-02-06T16:17:42.915Z,102251
2023-02-06T16:27:42.523Z,102264
2023-02-06T16:37:43.507Z,102269
2023-02-06T16:47:41.628Z,102275
2023-02-06T16:57:41.650Z,102278
2023-02-06T17:07:45.127Z,102282
2023-02-06T17:17:41.634Z,102288
2023-02-06T17:27:43.044Z,102293
2023-02-06T17:37:41.695Z,102294
2023-02-06T17:47:42.514Z,102293
2023-02-06T17:57:41.377Z,102306
2023-02-06T18:04:35.466Z,102323
2023-02-06T18:07:41.265Z,102323
2023-02-06T18:17:43.577Z,102330
2023-02-06T18:27:43.398Z,102324
2023-02-06T18:37:43.183Z,102328
2023-02-06T18:47:41.132Z,102331
2023-02-06T18:57:42.232Z,102343
2023-02-06T19:07:40.771Z,102353
2023-02-06T19:17:42.536Z,102359
2023-02-06T19:27:40.889Z,102370
2023-02-06T19:37:41.396Z,102378
2023-02-06T19:47:40.086Z,102381
2023-02-06T19:57:41.013Z,102386
2023-02-06T20:07:39.589Z,102400
2023-02-06T20:17:39.863Z,102415
2023-02-06T20:27:39.162Z,102424
2023-02-06T20:37:39.835Z,102424
2023-02-06T20:47:38.738Z,102431
2023-02-06T20:57:38.243Z,102429
2023-02-06T21:07:39.172Z,102445
2023-02-06T21:17:37.939Z,102462
2023-02-06T21:27:39.113Z,102457
2023-02-06T21:37:38.661Z,102454
2023-02-06T21:47:37.156Z,102459
2023-02-06T21:57:36.945Z,102466
2023-02-06T22:07:36.810Z,102471
2023-02-06T22:17:36.578Z,102483
2023-02-06T22:27:36.229Z,102476
2023-02-06T22:37:35.927Z,102482
2023-02-06T22:47:35.855Z,102485
2023-02-06T22:57:35.344Z,102481
2023-02-06T23:07:35.178Z,102489
2023-02-06T23:17:34.841Z,102495
2023-02-06T23:27:34.620Z,102497
2023-02-06T23:37:33.929Z,102503
2023-02-06T23:47:33.568Z,102493
2023-02-06T23:57:33.471Z,102497
